createdAt,value
2019-04-22T00:02:10.768Z,3.37
2019-04-22T00:04:49.777Z,3.67
2019-04-22T00:07:30.254Z,3.70
2019-04-22T00:10:09.616Z,3.27
2019-04-22T00:15:03.709Z,3.30
2019-04-22T00:17:45.135Z,3.93
2019-04-22T00:20:11.465Z,3.93
2019-04-22T00:22:38.733Z,3.50
2019-04-22T00:25:13.354Z,3.43
2019-04-22T00:27:48.976Z,3.63
2019-04-22T00:30:18.037Z,3.73
2019-04-22T00:33:06.117Z,3.80
2019-04-22T00:35:38.079Z,3.63
2019-04-22T00:38:11.210Z,3.50
2019-04-22T00:40:39.349Z,3.57
2019-04-22T00:43:16.511Z,3.90
2019-04-22T00:45:44.723Z,3.43
2019-04-22T00:48:21.102Z,3.77
2019-04-22T00:50:55.683Z,4.00
2019-04-22T00:53:22.552Z,3.80
2019-04-22T00:56:10.955Z,3.90
2019-04-22T01:01:15.774Z,4.17
2019-04-22T01:03:50.961Z,4.20
2019-04-22T01:06:17.327Z,3.77
2019-04-22T01:08:53.055Z,4.20
2019-04-22T01:11:24.756Z,4.10
2019-04-22T01:13:53.377Z,3.80
2019-04-22T01:18:48.783Z,6.90
2019-04-22T01:23:55.147Z,8.57
2019-04-22T01:26:20.225Z,6.57
2019-04-22T01:28:50.534Z,5.80
2019-04-22T01:31:15.362Z,6.40
2019-04-22T01:33:47.727Z,4.97
2019-04-22T01:36:33.501Z,5.57
2019-04-22T01:39:03.793Z,5.53
2019-04-22T01:41:48.368Z,6.23
2019-04-22T01:44:29.466Z,4.53
2019-04-22T01:46:47.195Z,4.80
2019-04-22T01:49:19.299Z,4.63
2019-04-22T01:54:22.360Z,4.67
2019-04-22T01:56:48.397Z,5.70
2019-04-22T01:59:12.896Z,4.63
2019-04-22T02:01:52.476Z,4.90
2019-04-22T02:04:35.420Z,4.60
2019-04-22T02:06:57.551Z,4.87
2019-04-22T02:09:31.220Z,4.87
2019-04-22T02:12:03.002Z,4.47
2019-04-22T02:14:34.094Z,4.60
2019-04-22T02:17:05.185Z,4.60
2019-04-22T02:22:04.153Z,4.87
2019-04-22T02:24:39.599Z,5.03
2019-04-22T02:27:13.976Z,4.93
2019-04-22T02:29:43.479Z,5.00
2019-04-22T02:32:21.589Z,4.70
2019-04-22T02:34:56.911Z,4.77
2019-04-22T02:37:21.231Z,4.43
2019-04-22T02:39:47.118Z,4.90
2019-04-22T02:42:14.086Z,4.83
2019-04-22T02:44:53.665Z,4.97
2019-04-22T02:47:36.206Z,4.73
2019-04-22T02:50:01.841Z,4.50
2019-04-22T02:52:35.441Z,4.80
2019-04-22T02:55:03.052Z,4.50
2019-04-22T02:57:35.802Z,4.43
2019-04-22T03:00:07.402Z,4.60
2019-04-22T03:02:43.869Z,5.07
2019-04-22T03:05:13.117Z,4.90
2019-04-22T03:07:47.642Z,5.10
2019-04-22T03:10:12.250Z,4.77
2019-04-22T03:12:33.442Z,5.07
2019-04-22T03:15:07.882Z,4.80
2019-04-22T03:18:04.715Z,4.83
2019-04-22T03:22:47.077Z,5.07
2019-04-22T03:27:42.720Z,5.00
2019-04-22T03:43:09.199Z,5.50
2019-04-22T03:45:32.012Z,4.90
2019-04-22T03:48:04.569Z,4.50
2019-04-22T03:53:14.916Z,5.17
2019-04-22T03:55:37.429Z,4.40
2019-04-22T04:05:50.375Z,4.47
2019-04-22T04:10:45.995Z,4.30
2019-04-22T04:15:57.566Z,5.57
2019-04-22T04:18:26.534Z,5.50
2019-04-22T04:25:57.411Z,4.60
2019-04-22T04:28:46.544Z,4.57
2019-04-22T04:31:09.155Z,4.77
2019-04-22T04:33:35.964Z,4.87
2019-04-22T04:36:02.584Z,4.97
2019-04-22T04:38:43.013Z,4.03
2019-04-22T04:41:06.904Z,5.10
2019-04-22T04:43:35.622Z,5.37
2019-04-22T04:46:10.129Z,4.50
2019-04-22T04:51:15.866Z,4.87
2019-04-22T04:53:33.708Z,5.40
2019-04-22T04:56:33.959Z,5.40
2019-04-22T05:03:49.297Z,4.97
2019-04-22T05:11:32.926Z,4.80
2019-04-22T05:18:55.087Z,4.80
2019-04-22T05:21:16.471Z,4.43
2019-04-22T05:24:00.280Z,5.43
2019-04-22T05:26:28.043Z,5.03
2019-04-22T05:28:52.106Z,4.87
2019-04-22T05:31:24.648Z,4.30
2019-04-22T05:34:01.251Z,3.93
2019-04-22T05:36:28.267Z,4.50
2019-04-22T05:39:00.102Z,4.00
2019-04-22T05:41:32.309Z,4.47
2019-04-22T05:44:04.984Z,4.40
2019-04-22T05:46:28.366Z,4.20
2019-04-22T05:49:09.934Z,4.63
2019-04-22T05:51:38.893Z,4.40
2019-04-22T05:54:13.291Z,4.70
2019-04-22T06:01:52.030Z,4.13
2019-04-22T06:04:11.300Z,4.63
2019-04-22T06:06:37.065Z,4.73
2019-04-22T06:09:12.538Z,4.53
2019-04-22T06:11:55.525Z,4.33
2019-04-22T06:14:18.993Z,4.63
2019-04-22T06:16:53.239Z,4.40
2019-04-22T06:19:21.604Z,4.50
2019-04-22T06:21:49.099Z,4.27
2019-04-22T06:24:31.222Z,4.60
2019-04-22T06:29:25.308Z,4.20
2019-04-22T06:32:22.312Z,4.40
2019-04-22T06:34:28.879Z,4.13
2019-04-22T06:44:36.556Z,3.77
2019-04-22T06:47:10.535Z,4.00
2019-04-22T06:49:35.497Z,4.13
2019-04-22T06:52:14.139Z,3.93
2019-04-22T06:54:40.630Z,4.17
2019-04-22T06:57:25.373Z,3.97
2019-04-22T06:59:49.888Z,4.20
2019-04-22T07:02:16.475Z,3.83
2019-04-22T07:04:47.717Z,4.50
2019-04-22T07:07:12.224Z,3.60
2019-04-22T07:09:46.747Z,4.07
2019-04-22T07:12:18.390Z,4.17
2019-04-22T07:14:48.851Z,4.43
2019-04-22T07:17:24.120Z,4.00
2019-04-22T07:19:47.132Z,4.20
2019-04-22T07:22:26.146Z,3.67
2019-04-22T07:27:40.631Z,4.30
2019-04-22T07:30:03.874Z,3.60
2019-04-22T07:32:55.882Z,3.40
2019-04-22T07:35:03.680Z,3.63
2019-04-22T07:40:02.454Z,3.27
2019-04-22T07:42:36.862Z,3.27
2019-04-22T07:45:25.444Z,3.60
2019-04-22T07:47:38.393Z,3.60
2019-04-22T07:50:22.966Z,3.17
2019-04-22T07:52:41.334Z,3.20
2019-04-22T07:55:05.640Z,3.10
2019-04-22T07:57:44.463Z,3.03
2019-04-22T08:02:52.833Z,3.43
2019-04-22T08:05:22.459Z,3.20
2019-04-22T08:07:52.041Z,3.27
2019-04-22T08:10:29.851Z,3.37
2019-04-22T08:13:05.696Z,3.10
2019-04-22T08:15:26.981Z,2.90
2019-04-22T08:18:01.582Z,3.67
2019-04-22T08:20:30.715Z,3.53
2019-04-22T08:23:04.881Z,3.60
2019-04-22T08:25:33.441Z,3.10
2019-04-22T08:28:06.878Z,3.43
2019-04-22T08:33:09.675Z,3.20
2019-04-22T08:35:52.142Z,3.23
2019-04-22T08:38:11.395Z,3.07
2019-04-22T08:41:10.253Z,3.30
2019-04-22T08:43:21.003Z,2.93
2019-04-22T08:45:54.615Z,3.37
2019-04-22T08:48:15.051Z,3.00
2019-04-22T08:50:48.819Z,3.17
2019-04-22T08:53:26.485Z,3.23
2019-04-22T08:55:56.805Z,3.20
2019-04-22T09:00:56.968Z,3.20
2019-04-22T09:03:27.990Z,3.23
2019-04-22T09:06:04.507Z,3.10
2019-04-22T09:08:32.467Z,2.77
2019-04-22T09:10:57.087Z,3.03
2019-04-22T09:13:31.537Z,3.30
2019-04-22T09:16:05.335Z,3.33
2019-04-22T09:18:34.841Z,3.27
2019-04-22T09:21:15.468Z,3.47
2019-04-22T09:23:38.453Z,2.97
2019-04-22T09:26:08.676Z,3.20
2019-04-22T09:28:37.820Z,3.00
2019-04-22T09:33:38.362Z,2.97
2019-04-22T09:36:16.723Z,3.47
2019-04-22T09:38:41.106Z,3.37
2019-04-22T09:41:14.129Z,2.80
2019-04-22T09:46:14.872Z,3.20
2019-04-22T09:48:50.161Z,3.40
2019-04-22T09:51:18.596Z,3.07
2019-04-22T09:53:54.595Z,3.23
2019-04-22T09:56:23.799Z,2.80
2019-04-22T10:06:36.675Z,2.77
2019-04-22T10:09:12.448Z,3.60
2019-04-22T10:11:32.622Z,3.73
2019-04-22T10:16:45.552Z,4.30
2019-04-22T10:19:04.227Z,4.60
2019-04-22T10:24:09.187Z,3.90
2019-04-22T10:26:39.619Z,4.20
2019-04-22T10:29:10.752Z,3.80
2019-04-22T10:31:43.314Z,3.67
2019-04-22T10:34:00.154Z,3.97
2019-04-22T10:36:21.353Z,3.63
2019-04-22T10:38:52.438Z,2.97
2019-04-22T10:41:22.860Z,3.13
2019-04-22T10:43:52.942Z,3.43
2019-04-22T10:46:24.202Z,2.97
2019-04-22T10:48:54.574Z,4.13
2019-04-22T10:51:24.472Z,4.20
2019-04-22T10:53:55.646Z,3.67
2019-04-22T10:56:25.403Z,3.80
2019-04-22T10:58:56.268Z,3.17
2019-04-22T11:01:25.919Z,3.80
2019-04-22T11:03:55.551Z,2.73
2019-04-22T11:06:25.398Z,3.80
2019-04-22T11:08:59.773Z,2.90
2019-04-22T11:11:41.555Z,2.70
2019-04-22T11:13:58.107Z,3.20
2019-04-22T11:16:27.933Z,3.27
2019-04-22T11:18:57.690Z,2.97
2019-04-22T11:21:27.466Z,3.50
2019-04-22T11:23:58.608Z,3.07
2019-04-22T11:26:28.366Z,3.17
2019-04-22T11:28:59.372Z,2.87
2019-04-22T11:31:30.372Z,3.23
2019-04-22T11:34:00.778Z,3.13
2019-04-22T11:36:30.908Z,3.07
2019-04-22T11:39:03.867Z,2.80
2019-04-22T11:41:33.784Z,2.90
2019-04-22T11:44:05.295Z,3.00
2019-04-22T11:46:35.604Z,2.90
2019-04-22T11:49:05.854Z,2.77
2019-04-22T11:51:36.098Z,3.03
2019-04-22T11:54:07.201Z,2.97
2019-04-22T11:56:37.055Z,2.87
2019-04-22T11:59:06.855Z,3.13
2019-04-22T12:01:37.179Z,3.00
2019-04-22T12:04:07.634Z,3.17
2019-04-22T12:06:37.846Z,2.90
2019-04-22T12:09:10.216Z,2.90
2019-04-22T12:11:40.802Z,2.90
2019-04-22T12:14:11.782Z,2.60
2019-04-22T12:16:41.441Z,3.00
2019-04-22T12:19:11.439Z,3.00
2019-04-22T12:21:41.378Z,2.80
2019-04-22T12:24:11.057Z,3.07
2019-04-22T12:26:42.183Z,2.77
2019-04-22T12:29:13.314Z,2.77
2019-04-22T12:31:43.012Z,3.00
2019-04-22T12:34:13.309Z,2.90
2019-04-22T12:36:44.706Z,3.17
2019-04-22T12:39:15.680Z,3.30
2019-04-22T12:41:46.367Z,3.10
2019-04-22T12:44:16.223Z,3.50
2019-04-22T12:46:46.170Z,2.90
2019-04-22T12:49:16.275Z,3.47
2019-04-22T12:51:47.198Z,2.97
2019-04-22T12:54:17.151Z,2.93
2019-04-22T12:56:47.910Z,2.97
2019-04-22T12:59:19.346Z,3.10
2019-04-22T13:01:49.168Z,2.53
2019-04-22T13:04:21.206Z,3.50
2019-04-22T13:06:50.066Z,3.03
2019-04-22T13:09:21.189Z,2.63
2019-04-22T13:11:51.127Z,2.60
2019-04-22T13:14:21.113Z,3.07
2019-04-22T13:16:51.179Z,2.70
2019-04-22T13:19:22.752Z,2.90
2019-04-22T13:21:52.328Z,2.60
2019-04-22T13:24:21.983Z,2.50
2019-04-22T13:26:52.983Z,2.77
2019-04-22T13:29:23.274Z,3.00
2019-04-22T13:31:53.157Z,2.80
2019-04-22T13:34:31.593Z,2.70
2019-04-22T13:36:54.943Z,2.77
2019-04-22T13:39:25.055Z,2.50
2019-04-22T13:42:01.626Z,2.63
2019-04-22T13:44:26.162Z,2.27
2019-04-22T13:47:17.454Z,2.30
2019-04-22T13:50:03.219Z,2.40
2019-04-22T13:57:20.073Z,2.40
2019-04-22T13:59:40.862Z,1.90
2019-04-22T14:02:22.298Z,2.30
2019-04-22T14:04:52.707Z,2.40
2019-04-22T14:07:23.029Z,2.33
2019-04-22T14:09:54.030Z,2.17
2019-04-22T14:12:24.628Z,2.27
2019-04-22T14:14:56.247Z,1.80
2019-04-22T14:17:26.988Z,2.03
2019-04-22T14:19:56.938Z,2.20
2019-04-22T14:22:26.520Z,2.13
2019-04-22T14:24:56.515Z,2.37
2019-04-22T14:27:38.286Z,2.25
2019-04-22T14:29:57.717Z,2.30
2019-04-22T14:32:30.292Z,2.40
2019-04-22T14:34:58.771Z,2.22
2019-04-22T14:37:29.802Z,2.27
2019-04-22T14:40:00.256Z,2.42
2019-04-22T14:42:52.035Z,2.95
2019-04-22T14:45:30.437Z,2.40
2019-04-22T14:48:03.921Z,2.30
2019-04-22T14:50:25.317Z,2.27
2019-04-22T14:52:58.237Z,2.37
2019-04-22T14:55:15.578Z,2.20
2019-04-22T14:57:43.714Z,2.50
2019-04-22T15:00:15.828Z,2.20
2019-04-22T15:02:47.828Z,2.25
2019-04-22T15:05:18.666Z,2.50
2019-04-22T15:07:50.276Z,2.52
2019-04-22T15:10:22.216Z,2.65
2019-04-22T15:12:56.364Z,2.55
2019-04-22T15:16:03.199Z,2.50
2019-04-22T15:18:46.713Z,2.50
2019-04-22T15:21:20.656Z,2.65
2019-04-22T15:23:51.035Z,1.95
2019-04-22T15:26:22.280Z,2.40
2019-04-22T15:28:53.513Z,2.75
2019-04-22T15:31:24.165Z,2.35
2019-04-22T15:33:54.461Z,2.20
2019-04-22T15:36:26.144Z,2.42
2019-04-22T15:38:57.610Z,2.50
2019-04-22T15:41:28.550Z,2.27
2019-04-22T15:43:59.695Z,2.37
2019-04-22T15:46:30.167Z,2.12
2019-04-22T15:49:00.434Z,2.15
2019-04-22T15:51:31.043Z,2.60
2019-04-22T15:54:01.642Z,2.30
2019-04-22T15:56:32.645Z,2.50
2019-04-22T15:59:15.656Z,2.75
2019-04-22T16:01:37.813Z,2.85
2019-04-22T16:04:08.265Z,2.17
2019-04-22T16:06:38.896Z,2.25
2019-04-22T16:09:11.176Z,2.10
2019-04-22T16:11:42.293Z,2.50
2019-04-22T16:14:15.183Z,2.45
2019-04-22T16:16:46.222Z,2.10
2019-04-22T16:19:17.036Z,2.52
2019-04-22T16:21:55.347Z,2.27
2019-04-22T16:24:38.187Z,2.30
2019-04-22T16:27:16.542Z,2.35
2019-04-22T16:29:47.457Z,2.37
2019-04-22T16:32:19.125Z,2.33
2019-04-22T16:34:49.957Z,2.50
2019-04-22T16:37:20.988Z,2.40
2019-04-22T16:39:52.341Z,2.10
2019-04-22T16:42:31.207Z,2.27
2019-04-22T16:44:55.478Z,2.65
2019-04-22T16:47:25.884Z,2.42
2019-04-22T16:49:57.444Z,2.92
2019-04-22T16:52:32.041Z,2.60
2019-04-22T16:55:03.490Z,2.73
2019-04-22T16:57:33.946Z,2.60
2019-04-22T17:00:04.789Z,2.97
2019-04-22T17:02:50.267Z,2.47
2019-04-22T17:05:38.153Z,2.50
2019-04-22T17:08:10.144Z,2.53
2019-04-22T17:10:41.829Z,2.23
2019-04-22T17:13:17.648Z,2.80
2019-04-22T17:15:45.135Z,2.40
2019-04-22T17:18:19.144Z,2.30
2019-04-22T17:20:50.795Z,2.27
2019-04-22T17:23:21.481Z,2.40
2019-04-22T17:25:52.499Z,2.30
2019-04-22T17:28:23.631Z,2.47
2019-04-22T17:30:54.100Z,3.10
2019-04-22T17:33:24.580Z,2.73
2019-04-22T17:35:55.099Z,2.43
2019-04-22T17:38:33.898Z,2.77
2019-04-22T17:41:11.367Z,2.80
2019-04-22T17:43:54.372Z,2.63
2019-04-22T17:46:40.402Z,2.90
2019-04-22T17:49:33.972Z,2.80
2019-04-22T17:52:16.947Z,2.40
2019-04-22T17:57:26.034Z,2.17
2019-04-22T17:59:53.720Z,2.87
2019-04-22T18:02:25.378Z,2.13
2019-04-22T18:04:46.864Z,2.20
2019-04-22T18:07:37.062Z,2.70
2019-04-22T18:15:11.455Z,2.33
2019-04-22T18:17:41.353Z,2.43
2019-04-22T18:20:07.139Z,2.00
2019-04-22T18:22:36.900Z,3.07
2019-04-22T18:25:07.731Z,2.40
2019-04-22T18:30:17.018Z,2.33
2019-04-22T18:32:50.637Z,2.10
2019-04-22T18:35:20.541Z,2.60
2019-04-22T18:37:53.471Z,2.40
2019-04-22T18:40:30.910Z,2.93
2019-04-22T18:43:06.269Z,2.73
2019-04-22T18:48:02.918Z,2.63
2019-04-22T18:50:53.620Z,2.30
2019-04-22T18:53:34.913Z,2.63
2019-04-22T18:56:16.619Z,2.70
2019-04-22T18:58:39.425Z,2.47
2019-04-22T19:00:57.804Z,2.53
2019-04-22T19:03:32.190Z,2.40
2019-04-22T19:06:31.855Z,2.90
2019-04-22T19:08:55.523Z,5.30
2019-04-22T19:11:27.159Z,10.47
2019-04-22T19:14:40.893Z,25.53
2019-04-22T19:16:36.959Z,53.57
2019-04-22T19:21:36.263Z,56.17
2019-04-22T19:24:07.331Z,69.60
2019-04-22T19:26:50.046Z,17.03
2019-04-22T19:29:16.086Z,43.23
2019-04-22T19:31:48.407Z,34.77
2019-04-22T19:34:16.178Z,17.57
2019-04-22T19:36:51.332Z,8.50
2019-04-22T19:39:19.246Z,16.93
2019-04-22T19:42:04.247Z,3.90
2019-04-22T19:44:29.153Z,10.17
2019-04-22T19:47:18.641Z,7.23
2019-04-22T19:49:38.406Z,9.57
2019-04-22T19:52:24.931Z,11.00
2019-04-22T19:54:37.733Z,9.87
2019-04-22T19:57:03.563Z,6.90
2019-04-22T19:59:42.574Z,5.03
2019-04-22T20:02:30.138Z,32.37
2019-04-22T20:05:23.194Z,25.67
2019-04-22T20:07:41.765Z,76.97
2019-04-22T20:10:22.415Z,84.63
2019-04-22T20:12:50.159Z,21.43
2019-04-22T20:15:22.719Z,23.10
2019-04-22T20:18:19.192Z,24.93
2019-04-22T20:20:32.996Z,30.33
2019-04-22T20:22:57.565Z,21.10
2019-04-22T20:25:33.305Z,29.50
2019-04-22T20:28:07.466Z,24.30
2019-04-22T20:30:39.876Z,26.93
2019-04-22T20:33:08.401Z,6.53
2019-04-22T20:35:43.499Z,12.37
2019-04-22T20:38:21.375Z,4.13
2019-04-22T20:40:50.526Z,18.30
2019-04-22T20:43:29.262Z,15.57
2019-04-22T20:45:57.701Z,9.67
2019-04-22T20:48:22.315Z,7.83
2019-04-22T20:50:58.115Z,4.50
2019-04-22T20:53:36.482Z,26.80
2019-04-22T20:56:05.600Z,39.50
2019-04-22T20:58:38.800Z,35.10
2019-04-22T21:00:59.582Z,48.37
2019-04-22T21:03:31.894Z,32.53
2019-04-22T21:06:07.339Z,63.97
2019-04-22T21:08:47.536Z,8.23
2019-04-22T21:13:54.268Z,13.87
2019-04-22T21:16:26.805Z,8.60
2019-04-22T21:18:52.659Z,25.07
2019-04-22T21:21:32.031Z,7.43
2019-04-22T21:23:58.313Z,10.07
2019-04-22T21:26:33.607Z,9.70
2019-04-22T21:29:07.163Z,11.47
2019-04-22T21:31:43.858Z,4.70
2019-04-22T21:34:10.265Z,11.40
2019-04-22T21:36:48.240Z,9.63
2019-04-22T21:39:15.575Z,3.37
2019-04-22T21:41:47.320Z,3.30
2019-04-22T21:44:18.448Z,4.63
2019-04-22T21:47:03.382Z,3.50
2019-04-22T21:49:29.666Z,4.00
2019-04-22T21:52:01.229Z,3.50
2019-04-22T21:54:31.645Z,3.20
2019-04-22T21:57:27.943Z,3.30
2019-04-22T22:00:09.747Z,18.60
2019-04-22T22:02:33.782Z,10.00
2019-04-22T22:04:55.177Z,7.10
2019-04-22T22:07:21.996Z,6.63
2019-04-22T22:10:12.290Z,35.03
2019-04-22T22:12:42.274Z,17.50
2019-04-22T22:15:16.184Z,20.93
2019-04-22T22:17:46.861Z,7.57
2019-04-22T22:20:14.660Z,20.87
2019-04-22T22:23:20.671Z,15.30
2019-04-22T22:25:23.667Z,34.10
2019-04-22T22:27:47.504Z,10.50
2019-04-22T22:33:05.458Z,5.70
2019-04-22T22:35:35.731Z,10.60
2019-04-22T22:38:02.786Z,5.07
2019-04-22T22:40:23.322Z,3.43
2019-04-22T22:42:53.439Z,3.27
2019-04-22T22:45:32.790Z,4.13
2019-04-22T22:48:21.870Z,5.27
2019-04-22T22:50:43.046Z,3.70
2019-04-22T22:53:29.118Z,4.97
2019-04-22T22:55:53.246Z,19.27
2019-04-22T22:58:27.460Z,20.00
2019-04-22T23:00:56.110Z,17.57
2019-04-22T23:03:48.336Z,25.30
2019-04-22T23:06:03.578Z,14.63
2019-04-22T23:08:38.530Z,7.77
2019-04-22T23:11:15.438Z,9.10
2019-04-22T23:13:42.636Z,11.63
2019-04-22T23:16:04.191Z,20.40
2019-04-22T23:18:23.782Z,32.47
2019-04-22T23:20:57.269Z,24.83
2019-04-22T23:23:44.059Z,49.00
2019-04-22T23:26:44.006Z,22.87
2019-04-22T23:29:27.104Z,12.60
2019-04-22T23:32:04.434Z,25.60
2019-04-22T23:34:41.615Z,17.03
2019-04-22T23:37:39.372Z,18.10
2019-04-22T23:40:17.353Z,14.00
2019-04-22T23:42:44.679Z,13.23
2019-04-22T23:45:25.518Z,5.67
2019-04-22T23:47:41.169Z,11.10
2019-04-22T23:50:24.405Z,6.27
2019-04-22T23:52:59.432Z,8.40
2019-04-22T23:55:32.804Z,11.20
2019-04-22T23:58:02.742Z,10.03
